createdAt,value
2023-05-06T00:02:56.637Z,6.93
2023-05-06T00:06:59.346Z,6.60
2023-05-06T00:11:03.333Z,6.70
2023-05-06T00:15:07.425Z,6.70
2023-05-06T00:19:10.448Z,7.30
2023-05-06T00:23:13.042Z,6.70
2023-05-06T00:27:17.009Z,7.00
2023-05-06T00:31:19.727Z,8.40
2023-05-06T00:35:26.179Z,10.40
2023-05-06T00:39:28.972Z,10.87
2023-05-06T00:43:33.154Z,10.47
2023-05-06T00:47:36.014Z,9.90
2023-05-06T00:51:38.937Z,9.53
2023-05-06T00:55:42.257Z,9.03
2023-05-06T00:59:46.309Z,7.13
2023-05-06T01:03:49.099Z,6.73
2023-05-06T01:08:01.133Z,6.93
2023-05-06T01:12:08.740Z,8.50
2023-05-06T01:16:15.480Z,8.27
2023-05-06T01:20:20.943Z,8.60
2023-05-06T01:24:36.101Z,8.90
2023-05-06T01:28:38.751Z,7.43
2023-05-06T01:32:51.268Z,6.50
2023-05-06T01:37:03.335Z,7.57
2023-05-06T01:41:08.901Z,5.40
2023-05-06T01:45:14.179Z,5.63
2023-05-06T01:49:17.957Z,8.10
2023-05-06T01:53:20.649Z,5.03
2023-05-06T01:57:24.694Z,5.53
2023-05-06T02:01:27.428Z,5.80
2023-05-06T02:05:30.790Z,7.43
2023-05-06T02:09:35.079Z,6.00
2023-05-06T02:13:40.442Z,6.23
2023-05-06T02:17:46.133Z,8.00
2023-05-06T02:21:49.124Z,5.80
2023-05-06T02:25:51.906Z,6.97
2023-05-06T02:29:55.895Z,8.70
2023-05-06T02:33:58.579Z,6.07
2023-05-06T02:38:01.863Z,9.23
2023-05-06T02:42:04.806Z,6.70
2023-05-06T02:46:08.830Z,7.60
2023-05-06T02:50:11.810Z,6.93
2023-05-06T02:54:14.632Z,11.40
2023-05-06T02:58:17.314Z,8.50
2023-05-06T03:02:21.805Z,8.13
2023-05-06T03:06:24.488Z,8.57
2023-05-06T03:10:29.019Z,11.10
2023-05-06T03:14:33.472Z,13.43
2023-05-06T03:18:37.800Z,8.70
2023-05-06T03:22:42.115Z,7.73
2023-05-06T03:26:44.863Z,8.93
2023-05-06T03:30:49.206Z,8.37
2023-05-06T03:34:54.120Z,7.87
2023-05-06T03:38:57.713Z,7.70
2023-05-06T03:43:00.451Z,10.33
2023-05-06T03:47:03.764Z,9.30
2023-05-06T03:51:10.097Z,8.43
2023-05-06T03:55:13.094Z,8.43
2023-05-06T03:59:16.110Z,9.97
2023-05-06T04:03:20.156Z,8.27
2023-05-06T04:07:27.634Z,8.97
2023-05-06T04:11:30.987Z,8.57
2023-05-06T04:15:36.445Z,9.10
2023-05-06T04:19:52.327Z,8.43
2023-05-06T04:24:01.557Z,8.20
2023-05-06T04:28:10.358Z,9.07
2023-05-06T04:32:13.604Z,9.53
2023-05-06T04:36:17.339Z,8.70
2023-05-06T04:40:31.652Z,9.57
2023-05-06T04:44:34.903Z,11.07
2023-05-06T04:48:39.926Z,8.17
2023-05-06T04:52:44.159Z,10.20
2023-05-06T04:56:49.089Z,9.80
2023-05-06T05:00:54.549Z,9.03
2023-05-06T05:04:57.298Z,10.07
2023-05-06T05:09:00.741Z,14.10
2023-05-06T05:13:06.176Z,14.00
2023-05-06T05:17:09.902Z,12.17
2023-05-06T05:21:13.888Z,12.53
2023-05-06T05:25:17.185Z,11.73
2023-05-06T05:29:22.430Z,12.13
2023-05-06T05:33:25.142Z,13.37
2023-05-06T05:37:28.208Z,14.53
2023-05-06T05:41:31.968Z,19.60
2023-05-06T05:45:36.471Z,19.87
2023-05-06T05:49:39.224Z,16.30
2023-05-06T05:53:42.257Z,16.47
2023-05-06T05:57:45.675Z,20.57
2023-05-06T06:01:51.234Z,16.43
2023-05-06T06:05:56.292Z,20.03
2023-05-06T06:10:00.813Z,20.40
2023-05-06T06:14:03.542Z,20.97
2023-05-06T06:18:08.779Z,18.20
2023-05-06T06:22:13.553Z,17.93
2023-05-06T06:26:16.367Z,21.93
2023-05-06T06:30:19.053Z,19.63
2023-05-06T06:34:23.367Z,21.53
2023-05-06T06:38:26.419Z,25.37
2023-05-06T06:42:29.045Z,24.27
2023-05-06T06:46:43.948Z,26.23
2023-05-06T06:50:47.962Z,27.27
2023-05-06T06:54:50.716Z,27.77
2023-05-06T06:58:53.616Z,26.47
2023-05-06T07:02:56.839Z,26.33
2023-05-06T07:07:03.223Z,27.03
2023-05-06T07:11:06.087Z,28.77
2023-05-06T07:15:09.745Z,27.87
2023-05-06T07:19:13.068Z,28.03
2023-05-06T07:23:17.003Z,27.87
2023-05-06T07:27:25.194Z,27.47
2023-05-06T07:31:27.874Z,26.13
2023-05-06T07:35:30.582Z,23.73
2023-05-06T07:39:34.626Z,24.93
2023-05-06T07:43:37.272Z,26.40
2023-05-06T07:47:40.046Z,23.27
2023-05-06T07:51:43.699Z,24.47
2023-05-06T07:55:47.746Z,24.63
2023-05-06T07:59:51.659Z,25.63
2023-05-06T08:03:54.468Z,23.33
2023-05-06T08:08:03.138Z,22.90
2023-05-06T08:12:07.328Z,24.53
2023-05-06T08:16:14.296Z,23.17
2023-05-06T08:20:17.102Z,23.80
2023-05-06T08:24:19.723Z,27.40
2023-05-06T08:28:25.262Z,24.47
2023-05-06T08:32:28.086Z,23.67
2023-05-06T08:36:30.905Z,24.33
2023-05-06T08:40:33.783Z,25.73
2023-05-06T08:44:38.085Z,27.63
2023-05-06T08:48:42.658Z,23.43
2023-05-06T08:52:46.132Z,23.00
2023-05-06T08:56:54.689Z,25.57
2023-05-06T09:00:58.912Z,24.17
2023-05-06T09:05:02.245Z,25.27
2023-05-06T09:09:05.654Z,24.93
2023-05-06T09:13:13.085Z,23.70
2023-05-06T09:17:26.426Z,20.20
2023-05-06T09:21:36.632Z,20.90
2023-05-06T09:25:39.578Z,22.97
2023-05-06T09:30:01.260Z,21.40
2023-05-06T09:34:05.349Z,20.53
2023-05-06T09:38:08.658Z,20.87
2023-05-06T09:42:11.629Z,21.57
2023-05-06T09:46:14.351Z,19.03
2023-05-06T09:50:18.782Z,18.17
2023-05-06T09:54:22.122Z,20.23
2023-05-06T09:58:25.076Z,21.10
2023-05-06T10:02:29.521Z,20.20
2023-05-06T10:06:35.597Z,20.33
2023-05-06T10:10:38.631Z,18.00
2023-05-06T10:14:41.455Z,17.37
2023-05-06T10:18:46.688Z,17.23
2023-05-06T10:23:04.412Z,16.80
2023-05-06T10:27:07.428Z,17.20
2023-05-06T10:31:13.383Z,18.20
2023-05-06T10:35:23.561Z,18.80
2023-05-06T10:39:28.163Z,16.50
2023-05-06T10:43:32.718Z,17.37
2023-05-06T10:48:12.607Z,15.60
2023-05-06T10:52:16.949Z,16.00
2023-05-06T10:56:21.158Z,19.00
2023-05-06T11:00:24.537Z,16.13
2023-05-06T11:04:29.716Z,17.13
2023-05-06T11:08:32.401Z,16.97
2023-05-06T11:12:50.370Z,14.43
2023-05-06T11:16:54.611Z,16.80
2023-05-06T11:21:37.689Z,16.70
2023-05-06T11:25:41.557Z,16.37
2023-05-06T11:29:45.765Z,15.30
2023-05-06T11:33:52.432Z,17.03
2023-05-06T11:37:55.277Z,15.63
2023-05-06T11:42:02.824Z,15.47
2023-05-06T11:46:07.320Z,16.80
2023-05-06T11:50:10.808Z,18.70
2023-05-06T11:54:15.497Z,17.57
2023-05-06T11:58:20.155Z,19.37
2023-05-06T12:02:24.187Z,19.53
2023-05-06T12:06:36.556Z,20.27
2023-05-06T12:10:40.772Z,21.80
2023-05-06T12:14:45.701Z,19.40
2023-05-06T12:18:49.814Z,20.80
2023-05-06T12:23:06.228Z,17.83
2023-05-06T12:27:09.032Z,19.47
2023-05-06T12:31:21.533Z,20.30
2023-05-06T12:35:29.444Z,18.63
2023-05-06T12:39:35.945Z,16.80
2023-05-06T12:43:38.725Z,19.60
2023-05-06T12:47:52.763Z,18.43
2023-05-06T12:52:10.878Z,17.80
2023-05-06T12:56:13.563Z,16.40
2023-05-06T13:00:17.411Z,18.63
2023-05-06T13:04:20.102Z,19.17
2023-05-06T13:08:24.249Z,20.30
2023-05-06T13:12:26.947Z,22.40
2023-05-06T13:20:33.913Z,22.57
2023-05-06T13:24:37.886Z,21.63
2023-05-06T13:28:41.145Z,20.43
2023-05-06T13:32:43.806Z,20.60
2023-05-06T13:36:49.046Z,20.77
2023-05-06T13:40:54.308Z,21.73
2023-05-06T13:44:57.003Z,18.30
2023-05-06T13:48:59.766Z,19.90
2023-05-06T13:53:02.429Z,19.00
2023-05-06T13:57:06.450Z,22.03
2023-05-06T14:01:09.061Z,20.07
2023-05-06T14:05:11.993Z,19.23
2023-05-06T14:09:14.833Z,16.90
2023-05-06T14:13:18.851Z,16.30
2023-05-06T14:17:21.632Z,18.20
2023-05-06T14:21:24.357Z,17.03
2023-05-06T14:25:27.957Z,16.40
2023-05-06T14:29:32.268Z,15.40
2023-05-06T14:33:35.148Z,14.70
2023-05-06T14:37:37.825Z,14.10
2023-05-06T14:41:40.872Z,16.20
2023-05-06T14:45:45.506Z,14.80
2023-05-06T14:49:49.315Z,7.00
2023-05-06T14:54:02.989Z,5.90
2023-05-06T14:58:06.952Z,6.77
2023-05-06T15:02:19.876Z,5.87
2023-05-06T15:06:28.359Z,6.20
2023-05-06T15:10:31.648Z,5.20
2023-05-06T15:14:34.477Z,7.57
2023-05-06T15:18:41.568Z,6.67
2023-05-06T15:22:44.291Z,8.27
2023-05-06T15:26:47.932Z,7.23
2023-05-06T15:30:51.531Z,8.20
2023-05-06T15:34:56.812Z,6.43
2023-05-06T15:39:01.156Z,7.33
2023-05-06T15:43:05.478Z,7.53
2023-05-06T15:47:27.029Z,8.87
2023-05-06T15:51:41.940Z,7.77
2023-05-06T15:55:49.696Z,8.17
2023-05-06T15:59:59.789Z,8.13
2023-05-06T16:04:03.519Z,8.97
2023-05-06T16:08:08.424Z,9.83
2023-05-06T16:12:11.209Z,9.60
2023-05-06T16:16:14.764Z,7.90
2023-05-06T16:20:17.479Z,7.87
2023-05-06T16:24:21.598Z,8.67
2023-05-06T16:28:24.591Z,8.73
2023-05-06T16:32:30.880Z,7.80
2023-05-06T16:36:33.857Z,8.00
2023-05-06T16:40:43.620Z,9.20
2023-05-06T16:44:46.604Z,8.30
2023-05-06T16:48:49.359Z,7.37
2023-05-06T16:52:52.898Z,8.47
2023-05-06T16:56:56.982Z,8.50
2023-05-06T17:00:59.822Z,7.63
2023-05-06T17:05:02.778Z,8.00
2023-05-06T17:09:06.833Z,8.23
2023-05-06T17:13:11.100Z,7.40
2023-05-06T17:17:13.930Z,8.07
2023-05-06T17:21:17.022Z,6.67
2023-05-06T17:25:23.210Z,6.63
2023-05-06T17:29:28.274Z,7.33
2023-05-06T17:33:31.315Z,7.37
2023-05-06T17:37:34.595Z,7.17
2023-05-06T17:41:38.586Z,6.90
2023-05-06T17:45:44.315Z,6.83
2023-05-06T17:49:47.150Z,6.93
2023-05-06T17:53:50.171Z,7.27
2023-05-06T17:57:53.396Z,7.07
2023-05-06T18:01:57.893Z,7.10
2023-05-06T18:06:02.216Z,6.80
2023-05-06T18:10:08.506Z,7.57
2023-05-06T18:14:12.431Z,7.20
2023-05-06T18:18:18.952Z,6.57
2023-05-06T18:22:23.793Z,6.80
2023-05-06T18:26:43.300Z,6.97
2023-05-06T18:30:50.725Z,6.60
2023-05-06T18:35:00.924Z,6.43
2023-05-06T18:39:04.659Z,6.77
2023-05-06T18:43:41.065Z,7.20
2023-05-06T18:48:17.293Z,6.20
2023-05-06T18:52:21.707Z,9.40
2023-05-06T18:56:24.373Z,6.83
2023-05-06T19:00:28.158Z,6.80
2023-05-06T19:04:31.322Z,6.40
2023-05-06T19:08:36.624Z,8.43
2023-05-06T19:12:39.490Z,6.97
2023-05-06T19:16:42.207Z,7.43
2023-05-06T19:20:44.998Z,9.03
2023-05-06T19:24:49.031Z,10.50
2023-05-06T19:28:52.491Z,14.67
2023-05-06T19:32:55.534Z,14.80
2023-05-06T19:37:00.964Z,16.27
2023-05-06T19:41:06.099Z,15.73
2023-05-06T19:45:09.598Z,13.93
2023-05-06T19:49:12.939Z,10.50
2023-05-06T19:53:15.650Z,9.80
2023-05-06T19:57:20.520Z,10.67
2023-05-06T20:01:24.197Z,9.20
2023-05-06T20:05:29.576Z,8.27
2023-05-06T20:09:32.473Z,9.70
2023-05-06T20:13:36.875Z,8.87
2023-05-06T20:17:39.811Z,11.47
2023-05-06T20:21:42.474Z,8.83
2023-05-06T20:25:45.710Z,8.43
2023-05-06T20:29:51.578Z,10.57
2023-05-06T20:33:54.542Z,10.90
2023-05-06T20:37:57.186Z,11.77
2023-05-06T20:41:59.873Z,9.83
2023-05-06T20:46:04.371Z,10.60
2023-05-06T20:50:07.953Z,16.13
2023-05-06T20:54:11.012Z,13.03
2023-05-06T20:58:13.644Z,14.47
2023-05-06T21:02:18.075Z,14.60
2023-05-06T21:06:21.549Z,14.63
2023-05-06T21:10:24.236Z,14.27
2023-05-06T21:14:27.108Z,14.83
2023-05-06T21:18:31.217Z,16.37
2023-05-06T21:22:34.333Z,19.07
2023-05-06T21:26:37.063Z,16.37
2023-05-06T21:30:39.915Z,17.17
2023-05-06T21:34:43.907Z,14.50
2023-05-06T21:38:48.824Z,16.50
2023-05-06T21:42:51.742Z,18.33
2023-05-06T21:46:55.900Z,19.13
2023-05-06T21:51:04.143Z,20.57
2023-05-06T21:55:08.076Z,18.13
2023-05-06T21:59:10.922Z,18.50
2023-05-06T22:03:14.684Z,23.13
2023-05-06T22:07:21.993Z,19.80
2023-05-06T22:11:32.230Z,25.27
2023-05-06T22:15:35.766Z,20.97
2023-05-06T22:19:40.796Z,19.83
2023-05-06T22:23:45.989Z,20.97
2023-05-06T22:27:57.604Z,21.03
2023-05-06T22:32:00.925Z,20.93
2023-05-06T22:36:03.840Z,16.93
2023-05-06T22:40:09.356Z,18.17
2023-05-06T22:44:14.388Z,20.00
2023-05-06T22:48:17.035Z,16.97
2023-05-06T22:52:20.161Z,17.97
2023-05-06T22:56:25.395Z,16.00
2023-05-06T23:00:28.445Z,19.73
2023-05-06T23:04:35.146Z,14.23
2023-05-06T23:08:45.217Z,15.17
2023-05-06T23:12:49.499Z,17.53
2023-05-06T23:16:53.063Z,15.27
2023-05-06T23:20:57.577Z,16.30
2023-05-06T23:25:01.021Z,13.90
2023-05-06T23:29:05.924Z,17.27
2023-05-06T23:33:11.793Z,15.87
2023-05-06T23:37:17.471Z,16.57
2023-05-06T23:41:20.294Z,18.20
2023-05-06T23:45:25.849Z,17.50
2023-05-06T23:49:29.045Z,18.70
2023-05-06T23:53:32.003Z,20.00
2023-05-06T23:57:35.958Z,15.47
